sensor_id;sensor_type;location;lat;lon;timestamp;temperature;humidity
14103;DHT22;7129;48.832;12.472;2022-08-26T00:04:24;20.90;99.90
14103;DHT22;7129;48.832;12.472;2022-08-26T00:09:26;20.90;99.90
14103;DHT22;7129;48.832;12.472;2022-08-26T00:14:29;20.80;99.90
14103;DHT22;7129;48.832;12.472;2022-08-26T00:19:31;20.70;99.90
14103;DHT22;7129;48.832;12.472;2022-08-26T00:24:33;20.60;99.90
14103;DHT22;7129;48.832;12.472;2022-08-26T00:29:36;20.60;99.90
14103;DHT22;7129;48.832;12.472;2022-08-26T00:34:38;20.60;99.90
14103;DHT22;7129;48.832;12.472;2022-08-26T00:39:40;20.60;99.90
14103;DHT22;7129;48.832;12.472;2022-08-26T00:44:43;20.50;99.90
14103;DHT22;7129;48.832;12.472;2022-08-26T00:49:45;20.40;99.90
14103;DHT22;7129;48.832;12.472;2022-08-26T00:54:52;20.40;99.90
14103;DHT22;7129;48.832;12.472;2022-08-26T01:00:00;20.30;99.90
14103;DHT22;7129;48.832;12.472;2022-08-26T01:05:05;20.40;99.90
14103;DHT22;7129;48.832;12.472;2022-08-26T01:10:10;20.40;99.90
14103;DHT22;7129;48.832;12.472;2022-08-26T01:15:19;20.30;99.90
14103;DHT22;7129;48.832;12.472;2022-08-26T01:20:28;20.20;99.90
14103;DHT22;7129;48.832;12.472;2022-08-26T01:25:37;20.30;99.90
14103;DHT22;7129;48.832;12.472;2022-08-26T01:30:40;20.30;99.90
14103;DHT22;7129;48.832;12.472;2022-08-26T01:35:44;20.20;99.90
14103;DHT22;7129;48.832;12.472;2022-08-26T01:40:47;20.20;99.90
14103;DHT22;7129;48.832;12.472;2022-08-26T01:45:50;20.20;99.90
14103;DHT22;7129;48.832;12.472;2022-08-26T01:50:55;20.20;99.90
14103;DHT22;7129;48.832;12.472;2022-08-26T01:55:59;20.10;99.90
14103;DHT22;7129;48.832;12.472;2022-08-26T02:01:03;20.00;99.90
14103;DHT22;7129;48.832;12.472;2022-08-26T02:06:06;20.00;99.90
14103;DHT22;7129;48.832;12.472;2022-08-26T02:11:11;19.90;99.90
14103;DHT22;7129;48.832;12.472;2022-08-26T02:16:15;19.90;99.90
14103;DHT22;7129;48.832;12.472;2022-08-26T02:21:18;19.80;99.90
14103;DHT22;7129;48.832;12.472;2022-08-26T02:26:23;19.80;99.90
14103;DHT22;7129;48.832;12.472;2022-08-26T02:31:26;19.70;99.90
14103;DHT22;7129;48.832;12.472;2022-08-26T02:36:27;19.70;99.90
14103;DHT22;7129;48.832;12.472;2022-08-26T02:41:31;19.80;99.90
14103;DHT22;7129;48.832;12.472;2022-08-26T02:46:33;19.80;99.90
14103;DHT22;7129;48.832;12.472;2022-08-26T02:51:34;19.80;99.90
14103;DHT22;7129;48.832;12.472;2022-08-26T02:56:38;19.80;99.90
14103;DHT22;7129;48.832;12.472;2022-08-26T03:01:40;19.70;99.90
14103;DHT22;7129;48.832;12.472;2022-08-26T03:06:44;19.70;99.90
14103;DHT22;7129;48.832;12.472;2022-08-26T03:11:47;19.60;99.90
14103;DHT22;7129;48.832;12.472;2022-08-26T03:16:50;19.60;99.90
14103;DHT22;7129;48.832;12.472;2022-08-26T03:21:53;19.50;99.90
14103;DHT22;7129;48.832;12.472;2022-08-26T03:26:57;19.40;99.90
14103;DHT22;7129;48.832;12.472;2022-08-26T03:32:01;19.40;99.90
14103;DHT22;7129;48.832;12.472;2022-08-26T03:37:03;19.40;99.90
14103;DHT22;7129;48.832;12.472;2022-08-26T03:42:06;19.40;99.90
14103;DHT22;7129;48.832;12.472;2022-08-26T03:47:08;19.40;99.90
14103;DHT22;7129;48.832;12.472;2022-08-26T03:52:10;19.40;99.90
14103;DHT22;7129;48.832;12.472;2022-08-26T03:57:14;19.50;99.90
14103;DHT22;7129;48.832;12.472;2022-08-26T04:02:16;19.50;99.90
14103;DHT22;7129;48.832;12.472;2022-08-26T04:07:18;19.40;99.90
14103;DHT22;7129;48.832;12.472;2022-08-26T04:12:21;19.40;99.90
14103;DHT22;7129;48.832;12.472;2022-08-26T04:17:24;19.50;99.90
14103;DHT22;7129;48.832;12.472;2022-08-26T04:22:26;19.50;99.90
14103;DHT22;7129;48.832;12.472;2022-08-26T04:27:30;19.50;99.90
14103;DHT22;7129;48.832;12.472;2022-08-26T04:32:33;19.50;99.90
14103;DHT22;7129;48.832;12.472;2022-08-26T04:37:35;19.60;99.90
14103;DHT22;7129;48.832;12.472;2022-08-26T04:42:38;19.60;99.90
14103;DHT22;7129;48.832;12.472;2022-08-26T04:47:40;19.70;99.90
14103;DHT22;7129;48.832;12.472;2022-08-26T04:52:42;19.70;99.90
14103;DHT22;7129;48.832;12.472;2022-08-26T04:57:45;19.70;99.90
14103;DHT22;7129;48.832;12.472;2022-08-26T05:02:47;19.80;99.90
14103;DHT22;7129;48.832;12.472;2022-08-26T05:07:48;19.80;99.90
14103;DHT22;7129;48.832;12.472;2022-08-26T05:12:52;19.80;99.90
14103;DHT22;7129;48.832;12.472;2022-08-26T05:17:53;19.90;99.90
14103;DHT22;7129;48.832;12.472;2022-08-26T05:22:59;19.90;99.90
14103;DHT22;7129;48.832;12.472;2022-08-26T05:28:03;20.00;99.90
14103;DHT22;7129;48.832;12.472;2022-08-26T05:33:05;20.00;99.90
14103;DHT22;7129;48.832;12.472;2022-08-26T05:38:09;20.10;99.90
14103;DHT22;7129;48.832;12.472;2022-08-26T05:43:13;20.10;99.90
14103;DHT22;7129;48.832;12.472;2022-08-26T05:48:16;20.20;99.90
14103;DHT22;7129;48.832;12.472;2022-08-26T05:53:19;20.20;99.90
14103;DHT22;7129;48.832;12.472;2022-08-26T05:58:24;20.30;99.90
14103;DHT22;7129;48.832;12.472;2022-08-26T06:03:26;20.30;99.90
14103;DHT22;7129;48.832;12.472;2022-08-26T06:08:28;20.40;99.90
14103;DHT22;7129;48.832;12.472;2022-08-26T06:13:32;20.40;99.90
14103;DHT22;7129;48.832;12.472;2022-08-26T06:18:36;20.50;99.90
14103;DHT22;7129;48.832;12.472;2022-08-26T06:23:38;20.50;99.90
14103;DHT22;7129;48.832;12.472;2022-08-26T06:29:00;20.60;99.90
14103;DHT22;7129;48.832;12.472;2022-08-26T06:34:03;20.60;99.90
14103;DHT22;7129;48.832;12.472;2022-08-26T06:39:08;20.70;99.90
14103;DHT22;7129;48.832;12.472;2022-08-26T06:44:13;20.80;99.90
14103;DHT22;7129;48.832;12.472;2022-08-26T06:49:15;20.80;99.90
14103;DHT22;7129;48.832;12.472;2022-08-26T06:54:17;20.90;99.90
14103;DHT22;7129;48.832;12.472;2022-08-26T06:59:21;21.00;99.90
14103;DHT22;7129;48.832;12.472;2022-08-26T07:04:23;21.10;99.90
14103;DHT22;7129;48.832;12.472;2022-08-26T07:09:28;21.20;99.90
14103;DHT22;7129;48.832;12.472;2022-08-26T07:14:34;21.20;99.90
14103;DHT22;7129;48.832;12.472;2022-08-26T07:19:36;21.30;99.90
14103;DHT22;7129;48.832;12.472;2022-08-26T07:24:38;21.50;99.90
14103;DHT22;7129;48.832;12.472;2022-08-26T07:29:43;21.60;99.90
14103;DHT22;7129;48.832;12.472;2022-08-26T07:34:45;21.70;99.90
14103;DHT22;7129;48.832;12.472;2022-08-26T07:39:47;21.90;99.90
14103;DHT22;7129;48.832;12.472;2022-08-26T07:44:50;22.00;99.90
14103;DHT22;7129;48.832;12.472;2022-08-26T07:49:54;22.20;99.90
14103;DHT22;7129;48.832;12.472;2022-08-26T07:54:58;22.40;99.90
14103;DHT22;7129;48.832;12.472;2022-08-26T08:00:04;22.50;99.90
14103;DHT22;7129;48.832;12.472;2022-08-26T08:05:08;22.70;99.90
14103;DHT22;7129;48.832;12.472;2022-08-26T08:10:11;23.00;99.90
14103;DHT22;7129;48.832;12.472;2022-08-26T08:15:16;23.20;99.90
14103;DHT22;7129;48.832;12.472;2022-08-26T08:20:21;23.40;99.90
14103;DHT22;7129;48.832;12.472;2022-08-26T08:25:23;23.50;99.90
14103;DHT22;7129;48.832;12.472;2022-08-26T08:30:26;23.80;99.90
14103;DHT22;7129;48.832;12.472;2022-08-26T08:35:28;24.00;99.90
14103;DHT22;7129;48.832;12.472;2022-08-26T08:40:31;24.20;99.90
14103;DHT22;7129;48.832;12.472;2022-08-26T08:45:36;24.60;99.90
14103;DHT22;7129;48.832;12.472;2022-08-26T08:50:41;24.90;99.90
14103;DHT22;7129;48.832;12.472;2022-08-26T08:55:52;25.20;99.90
14103;DHT22;7129;48.832;12.472;2022-08-26T09:00:59;25.60;99.90
14103;DHT22;7129;48.832;12.472;2022-08-26T09:06:05;25.90;99.90
14103;DHT22;7129;48.832;12.472;2022-08-26T09:11:17;26.20;99.90
14103;DHT22;7129;48.832;12.472;2022-08-26T09:16:26;26.40;99.90
14103;DHT22;7129;48.832;12.472;2022-08-26T09:21:33;26.60;99.90
14103;DHT22;7129;48.832;12.472;2022-08-26T09:32:57;27.00;99.90
14103;DHT22;7129;48.832;12.472;2022-08-26T09:37:59;27.20;99.90
14103;DHT22;7129;48.832;12.472;2022-08-26T09:43:10;27.50;99.90
14103;DHT22;7129;48.832;12.472;2022-08-26T09:48:25;27.50;98.70
14103;DHT22;7129;48.832;12.472;2022-08-26T09:53:30;27.20;99.40
14103;DHT22;7129;48.832;12.472;2022-08-26T09:58:35;26.90;99.90
14103;DHT22;7129;48.832;12.472;2022-08-26T10:03:39;26.60;99.90
14103;DHT22;7129;48.832;12.472;2022-08-26T10:08:44;26.40;99.90
14103;DHT22;7129;48.832;12.472;2022-08-26T10:13:50;26.10;99.60
14103;DHT22;7129;48.832;12.472;2022-08-26T10:18:58;25.90;99.90
14103;DHT22;7129;48.832;12.472;2022-08-26T10:24:03;26.00;99.90
14103;DHT22;7129;48.832;12.472;2022-08-26T10:29:11;26.00;99.90
14103;DHT22;7129;48.832;12.472;2022-08-26T10:34:16;26.00;99.90
14103;DHT22;7129;48.832;12.472;2022-08-26T10:39:22;26.10;99.90
14103;DHT22;7129;48.832;12.472;2022-08-26T10:44:27;25.90;99.70
14103;DHT22;7129;48.832;12.472;2022-08-26T10:49:32;26.00;99.90
14103;DHT22;7129;48.832;12.472;2022-08-26T10:54:38;26.20;99.90
14103;DHT22;7129;48.832;12.472;2022-08-26T10:59:51;26.30;99.90
14103;DHT22;7129;48.832;12.472;2022-08-26T11:04:59;26.20;99.90
14103;DHT22;7129;48.832;12.472;2022-08-26T11:15:56;26.00;99.90
14103;DHT22;7129;48.832;12.472;2022-08-26T11:21:00;26.00;99.90
14103;DHT22;7129;48.832;12.472;2022-08-26T11:26:39;25.90;99.90
14103;DHT22;7129;48.832;12.472;2022-08-26T11:48:45;25.90;99.90
14103;DHT22;7129;48.832;12.472;2022-08-26T11:54:14;25.90;99.90
14103;DHT22;7129;48.832;12.472;2022-08-26T11:59:48;25.80;99.90
14103;DHT22;7129;48.832;12.472;2022-08-26T12:05:33;25.80;99.90
14103;DHT22;7129;48.832;12.472;2022-08-26T12:11:02;25.60;99.90
14103;DHT22;7129;48.832;12.472;2022-08-26T12:22:30;25.50;98.70
14103;DHT22;7129;48.832;12.472;2022-08-26T12:59:43;25.20;99.90
14103;DHT22;7129;48.832;12.472;2022-08-26T13:04:45;25.00;99.90
14103;DHT22;7129;48.832;12.472;2022-08-26T13:09:47;24.80;99.90
14103;DHT22;7129;48.832;12.472;2022-08-26T13:20:04;24.40;99.90
14103;DHT22;7129;48.832;12.472;2022-08-26T13:25:06;24.20;99.90
14103;DHT22;7129;48.832;12.472;2022-08-26T13:30:12;23.90;99.90
14103;DHT22;7129;48.832;12.472;2022-08-26T13:40:32;23.80;99.90
14103;DHT22;7129;48.832;12.472;2022-08-26T13:45:34;23.80;99.90
14103;DHT22;7129;48.832;12.472;2022-08-26T13:50:36;23.90;99.90
14103;DHT22;7129;48.832;12.472;2022-08-26T13:55:40;23.90;99.90
14103;DHT22;7129;48.832;12.472;2022-08-26T14:30:33;23.70;99.90
14103;DHT22;7129;48.832;12.472;2022-08-26T14:40:45;23.70;99.90
14103;DHT22;7129;48.832;12.472;2022-08-26T14:57:54;24.10;99.90
14103;DHT22;7129;48.832;12.472;2022-08-26T15:03:32;24.20;99.90
14103;DHT22;7129;48.832;12.472;2022-08-26T15:08:34;24.50;99.90
14103;DHT22;7129;48.832;12.472;2022-08-26T15:13:39;24.60;99.90
14103;DHT22;7129;48.832;12.472;2022-08-26T15:18:42;24.60;99.90
14103;DHT22;7129;48.832;12.472;2022-08-26T15:23:44;24.60;99.90
14103;DHT22;7129;48.832;12.472;2022-08-26T15:28:47;24.70;99.90
14103;DHT22;7129;48.832;12.472;2022-08-26T15:33:50;24.80;99.90
14103;DHT22;7129;48.832;12.472;2022-08-26T15:38:52;24.70;99.90
14103;DHT22;7129;48.832;12.472;2022-08-26T15:43:55;24.80;99.90
14103;DHT22;7129;48.832;12.472;2022-08-26T15:48:57;24.70;99.90
14103;DHT22;7129;48.832;12.472;2022-08-26T15:54:01;24.70;99.90
14103;DHT22;7129;48.832;12.472;2022-08-26T15:59:05;24.60;99.90
14103;DHT22;7129;48.832;12.472;2022-08-26T16:04:08;24.40;99.90
14103;DHT22;7129;48.832;12.472;2022-08-26T16:09:10;24.20;99.90
14103;DHT22;7129;48.832;12.472;2022-08-26T16:14:14;24.20;99.90
14103;DHT22;7129;48.832;12.472;2022-08-26T16:19:17;24.20;99.90
14103;DHT22;7129;48.832;12.472;2022-08-26T16:24:19;24.20;99.90
14103;DHT22;7129;48.832;12.472;2022-08-26T16:29:23;24.10;99.90
14103;DHT22;7129;48.832;12.472;2022-08-26T16:34:25;24.10;99.90
14103;DHT22;7129;48.832;12.472;2022-08-26T16:39:27;24.10;99.90
14103;DHT22;7129;48.832;12.472;2022-08-26T16:44:30;24.10;99.90
14103;DHT22;7129;48.832;12.472;2022-08-26T16:49:44;24.00;99.90
14103;DHT22;7129;48.832;12.472;2022-08-26T16:54:46;24.00;99.90
14103;DHT22;7129;48.832;12.472;2022-08-26T17:00:20;23.90;99.90
14103;DHT22;7129;48.832;12.472;2022-08-26T17:05:24;23.90;99.90
14103;DHT22;7129;48.832;12.472;2022-08-26T17:10:27;23.90;99.90
14103;DHT22;7129;48.832;12.472;2022-08-26T17:15:31;23.80;99.90
14103;DHT22;7129;48.832;12.472;2022-08-26T17:20:33;23.70;99.90
14103;DHT22;7129;48.832;12.472;2022-08-26T17:25:35;23.60;99.90
14103;DHT22;7129;48.832;12.472;2022-08-26T17:30:38;23.50;99.90
14103;DHT22;7129;48.832;12.472;2022-08-26T17:35:43;23.40;99.90
14103;DHT22;7129;48.832;12.472;2022-08-26T17:40:48;23.30;99.90
14103;DHT22;7129;48.832;12.472;2022-08-26T17:45:56;23.30;99.90
14103;DHT22;7129;48.832;12.472;2022-08-26T17:50:58;23.20;99.90
14103;DHT22;7129;48.832;12.472;2022-08-26T17:56:00;23.10;99.90
14103;DHT22;7129;48.832;12.472;2022-08-26T18:01:04;23.00;99.90
14103;DHT22;7129;48.832;12.472;2022-08-26T18:06:09;22.80;99.90
14103;DHT22;7129;48.832;12.472;2022-08-26T18:11:13;22.70;99.90
14103;DHT22;7129;48.832;12.472;2022-08-26T18:16:18;22.60;99.90
14103;DHT22;7129;48.832;12.472;2022-08-26T18:21:22;22.50;99.90
14103;DHT22;7129;48.832;12.472;2022-08-26T18:26:26;22.40;99.90
14103;DHT22;7129;48.832;12.472;2022-08-26T18:31:30;22.30;99.90
14103;DHT22;7129;48.832;12.472;2022-08-26T18:36:34;22.20;99.90
14103;DHT22;7129;48.832;12.472;2022-08-26T18:41:40;22.20;99.90
14103;DHT22;7129;48.832;12.472;2022-08-26T18:46:45;22.10;99.90
14103;DHT22;7129;48.832;12.472;2022-08-26T18:51:47;22.00;99.90
14103;DHT22;7129;48.832;12.472;2022-08-26T18:56:52;21.90;99.90
14103;DHT22;7129;48.832;12.472;2022-08-26T19:01:55;21.90;99.90
14103;DHT22;7129;48.832;12.472;2022-08-26T19:06:57;21.80;99.90
14103;DHT22;7129;48.832;12.472;2022-08-26T19:11:59;21.80;99.90
14103;DHT22;7129;48.832;12.472;2022-08-26T19:17:03;21.90;99.90
14103;DHT22;7129;48.832;12.472;2022-08-26T19:22:05;21.80;99.90
14103;DHT22;7129;48.832;12.472;2022-08-26T19:27:07;21.70;99.90
14103;DHT22;7129;48.832;12.472;2022-08-26T19:32:11;21.70;99.90
14103;DHT22;7129;48.832;12.472;2022-08-26T19:37:13;21.60;99.90
14103;DHT22;7129;48.832;12.472;2022-08-26T19:42:15;21.60;99.90
14103;DHT22;7129;48.832;12.472;2022-08-26T19:47:18;21.50;99.90
14103;DHT22;7129;48.832;12.472;2022-08-26T19:52:34;21.50;99.90
14103;DHT22;7129;48.832;12.472;2022-08-26T19:57:37;21.40;99.90
14103;DHT22;7129;48.832;12.472;2022-08-26T20:02:54;21.30;99.90
14103;DHT22;7129;48.832;12.472;2022-08-26T20:08:10;21.30;99.90
14103;DHT22;7129;48.832;12.472;2022-08-26T20:13:13;21.30;99.90
14103;DHT22;7129;48.832;12.472;2022-08-26T20:18:16;21.20;99.90
14103;DHT22;7129;48.832;12.472;2022-08-26T20:23:36;21.10;99.90
14103;DHT22;7129;48.832;12.472;2022-08-26T20:28:37;21.00;99.90
14103;DHT22;7129;48.832;12.472;2022-08-26T20:33:41;21.00;99.90
14103;DHT22;7129;48.832;12.472;2022-08-26T20:38:43;21.00;99.90
14103;DHT22;7129;48.832;12.472;2022-08-26T20:43:46;20.90;99.90
14103;DHT22;7129;48.832;12.472;2022-08-26T20:48:49;20.80;99.90
14103;DHT22;7129;48.832;12.472;2022-08-26T20:53:52;20.80;99.90
14103;DHT22;7129;48.832;12.472;2022-08-26T20:58:58;20.80;99.90
14103;DHT22;7129;48.832;12.472;2022-08-26T21:04:04;20.80;99.90
14103;DHT22;7129;48.832;12.472;2022-08-26T21:09:10;20.80;99.90
14103;DHT22;7129;48.832;12.472;2022-08-26T21:14:12;20.80;99.90
14103;DHT22;7129;48.832;12.472;2022-08-26T21:19:17;20.80;99.90
14103;DHT22;7129;48.832;12.472;2022-08-26T21:24:33;20.80;99.90
14103;DHT22;7129;48.832;12.472;2022-08-26T21:29:35;20.70;99.90
14103;DHT22;7129;48.832;12.472;2022-08-26T21:34:39;20.70;99.90
14103;DHT22;7129;48.832;12.472;2022-08-26T21:39:56;20.70;99.90
14103;DHT22;7129;48.832;12.472;2022-08-26T21:44:59;20.70;99.90
14103;DHT22;7129;48.832;12.472;2022-08-26T21:50:17;20.70;99.90
14103;DHT22;7129;48.832;12.472;2022-08-26T21:55:18;20.70;99.90
14103;DHT22;7129;48.832;12.472;2022-08-26T22:00:21;20.70;99.90
14103;DHT22;7129;48.832;12.472;2022-08-26T22:11:52;20.70;99.90
14103;DHT22;7129;48.832;12.472;2022-08-26T22:17:08;20.50;99.90
14103;DHT22;7129;48.832;12.472;2022-08-26T22:22:10;20.50;99.90
14103;DHT22;7129;48.832;12.472;2022-08-26T22:27:14;20.50;99.90
14103;DHT22;7129;48.832;12.472;2022-08-26T22:32:16;20.50;99.90
14103;DHT22;7129;48.832;12.472;2022-08-26T22:37:26;20.50;99.90
14103;DHT22;7129;48.832;12.472;2022-08-26T22:42:30;20.50;99.90
14103;DHT22;7129;48.832;12.472;2022-08-26T22:47:34;20.50;99.90
14103;DHT22;7129;48.832;12.472;2022-08-26T22:52:36;20.40;99.90
14103;DHT22;7129;48.832;12.472;2022-08-26T22:57:39;20.40;99.90
14103;DHT22;7129;48.832;12.472;2022-08-26T23:02:41;20.40;99.90
14103;DHT22;7129;48.832;12.472;2022-08-26T23:13:46;20.40;99.90
14103;DHT22;7129;48.832;12.472;2022-08-26T23:18:48;20.30;99.90
14103;DHT22;7129;48.832;12.472;2022-08-26T23:23:50;20.20;99.90
14103;DHT22;7129;48.832;12.472;2022-08-26T23:28:53;20.20;99.90
14103;DHT22;7129;48.832;12.472;2022-08-26T23:33:55;20.10;99.90
14103;DHT22;7129;48.832;12.472;2022-08-26T23:39:15;20.10;99.90
14103;DHT22;7129;48.832;12.472;2022-08-26T23:44:18;20.10;99.90
14103;DHT22;7129;48.832;12.472;2022-08-26T23:49:21;20.20;99.90
14103;DHT22;7129;48.832;12.472;2022-08-26T23:54:24;20.10;99.90
14103;DHT22;7129;48.832;12.472;2022-08-26T23:59:27;20.10;99.90
